Time;durP1;ratioP1;P1;durP2;ratioP2;P2;SDS_P1;SDS_P2;PMS_P1;PMS_P2;Temp;Humidity;BMP_temperature;BMP_pressure;BME280_temperature;BME280_humidity;BME280_pressure;Samples;Min_cycle;Max_cycle;Signal;HPM_P1;HPM_P2
2022/10/25 00:02:22;;;;;;;9.70;5.55;;;;;;;;;;5073322;28;20054;-41
2022/10/25 00:04:48;;;;;;;9.32;4.55;;;;;;;;;;5073049;28;20032;-41
2022/10/25 00:07:14;;;;;;;9.43;6.22;;;;;;;;;;5073241;28;20093;-41
2022/10/25 00:09:39;;;;;;;12.52;7.32;;;;;;;;;;5073137;28;20028;-41
2022/10/25 00:12:05;;;;;;;9.20;5.45;;;;;;;;;;5072993;28;20398;-41
2022/10/25 00:14:30;;;;;;;4.35;2.58;;;;;;;;;;5073036;28;20060;-42
2022/10/25 00:16:56;;;;;;;5.07;2.65;;;;;;;;;;5072769;28;20047;-44
2022/10/25 00:19:21;;;;;;;7.68;1.80;;;;;;;;;;5071570;28;20024;-41
2022/10/25 00:21:47;;;;;;;2.17;1.50;;;;;;;;;;5072679;28;20027;-41
2022/10/25 00:24:14;;;;;;;1.50;1.10;;;;;;;;;;5072673;28;20036;-41
2022/10/25 00:26:40;;;;;;;2.08;1.40;;;;;;;;;;5072958;28;20013;-41
2022/10/25 00:29:06;;;;;;;0.93;0.70;;;;;;;;;;5072519;28;20438;-41
2022/10/25 00:31:31;;;;;;;2.75;1.52;;;;;;;;;;5072780;28;20025;-41
2022/10/25 00:33:56;;;;;;;0.50;0.50;;;;;;;;;;5072488;28;20032;-41
2022/10/25 00:36:23;;;;;;;1.67;0.65;;;;;;;;;;5072236;28;20041;-41
2022/10/25 00:38:48;;;;;;;3.97;0.88;;;;;;;;;;5072224;28;20051;-41
2022/10/25 00:41:15;;;;;;;2.35;0.85;;;;;;;;;;5071915;28;20543;-41
2022/10/25 00:43:42;;;;;;;1.23;0.50;;;;;;;;;;5072242;28;20070;-41
2022/10/25 00:46:19;;;;;;;0.85;0.47;;;;;;;;;;5072448;28;20318;-42
2022/10/25 00:49:11;;;;;;;3.38;0.57;;;;;;;;;;5072222;28;20442;-41
2022/10/25 00:51:40;;;;;;;4.28;0.70;;;;;;;;;;5070737;28;20052;-41
2022/10/25 00:54:06;;;;;;;0.77;0.50;;;;;;;;;;5072384;28;20024;-41
2022/10/25 00:56:34;;;;;;;2.28;0.80;;;;;;;;;;5070640;28;20054;-41
2022/10/25 00:59:01;;;;;;;0.52;0.40;;;;;;;;;;5071972;28;20528;-41
2022/10/25 01:01:27;;;;;;;0.57;0.52;;;;;;;;;;5072186;28;20123;-41
2022/10/25 01:03:54;;;;;;;1.02;0.80;;;;;;;;;;5072141;28;20518;-42
2022/10/25 01:06:22;;;;;;;1.48;0.68;;;;;;;;;;5072147;28;20027;-41
2022/10/25 01:08:48;;;;;;;0.95;0.77;;;;;;;;;;5070727;28;20039;-41
2022/10/25 01:11:14;;;;;;;1.65;0.60;;;;;;;;;;5071865;28;20502;-41
2022/10/25 01:13:39;;;;;;;1.75;0.80;;;;;;;;;;5070827;28;20020;-41
2022/10/25 01:16:09;;;;;;;1.02;0.60;;;;;;;;;;5071846;28;20455;-41
2022/10/25 01:18:44;;;;;;;0.75;0.50;;;;;;;;;;5071709;28;20077;-41
2022/10/25 01:21:17;;;;;;;0.55;0.40;;;;;;;;;;5071770;28;20486;-41
2022/10/25 01:23:51;;;;;;;1.20;0.63;;;;;;;;;;5071698;28;20056;-41
2022/10/25 01:26:36;;;;;;;0.75;0.47;;;;;;;;;;5071680;28;20471;-41
2022/10/25 01:29:04;;;;;;;1.55;1.30;;;;;;;;;;5071701;28;20382;-41
2022/10/25 01:31:37;;;;;;;2.10;0.40;;;;;;;;;;5071956;28;20024;-41
2022/10/25 01:34:08;;;;;;;1.08;0.40;;;;;;;;;;5071588;28;20042;-41
2022/10/25 01:36:37;;;;;;;0.93;0.45;;;;;;;;;;5071483;28;20078;-41
2022/10/25 01:39:07;;;;;;;0.73;0.50;;;;;;;;;;5070270;28;20044;-41
2022/10/25 01:41:43;;;;;;;0.70;0.63;;;;;;;;;;5071404;28;20530;-42
2022/10/25 01:44:27;;;;;;;3.83;0.95;;;;;;;;;;5071518;28;20632;-41
2022/10/25 01:46:56;;;;;;;5.50;0.68;;;;;;;;;;5071834;28;20063;-41
2022/10/25 01:49:33;;;;;;;0.50;0.40;;;;;;;;;;5071909;28;20025;-41
2022/10/25 01:51:59;;;;;;;7.22;0.60;;;;;;;;;;5070245;28;20024;-41
2022/10/25 01:54:25;;;;;;;3.08;0.63;;;;;;;;;;5074995;28;20386;-41
2022/10/25 01:56:56;;;;;;;0.63;0.30;;;;;;;;;;5075457;28;20474;-41
2022/10/25 01:59:28;;;;;;;4.95;0.90;;;;;;;;;;5075315;28;20033;-41
2022/10/25 02:02:05;;;;;;;1.90;0.32;;;;;;;;;;5075380;28;20115;-41
2022/10/25 02:04:31;;;;;;;2.03;0.40;;;;;;;;;;5075532;28;20064;-41
2022/10/25 02:07:14;;;;;;;1.67;0.45;;;;;;;;;;5075375;28;20805;-41
2022/10/25 02:09:58;;;;;;;0.70;0.40;;;;;;;;;;5075210;28;20025;-41
2022/10/25 02:12:26;;;;;;;1.02;0.47;;;;;;;;;;5075180;28;20485;-41
2022/10/25 02:14:58;;;;;;;0.93;0.20;;;;;;;;;;5075199;28;20021;-42
2022/10/25 02:17:24;;;;;;;0.50;0.40;;;;;;;;;;5075270;28;20041;-41
2022/10/25 02:19:51;;;;;;;2.65;0.40;;;;;;;;;;5075120;28;20460;-41
2022/10/25 02:22:18;;;;;;;2.30;0.60;;;;;;;;;;5075057;28;20040;-41
2022/10/25 02:24:44;;;;;;;0.95;0.43;;;;;;;;;;5075214;28;20070;-41
2022/10/25 02:27:11;;;;;;;0.65;0.40;;;;;;;;;;5074996;28;20036;-40
2022/10/25 02:29:38;;;;;;;1.67;0.60;;;;;;;;;;5074782;28;20008;-41
2022/10/25 02:32:03;;;;;;;0.25;0.25;;;;;;;;;;5075039;28;20062;-41
2022/10/25 02:34:29;;;;;;;0.15;0.15;;;;;;;;;;5074906;28;20554;-41
2022/10/25 02:36:54;;;;;;;2.03;0.40;;;;;;;;;;5074550;28;20063;-42
2022/10/25 02:39:25;;;;;;;0.20;0.20;;;;;;;;;;5074500;28;20078;-41
2022/10/25 02:41:50;;;;;;;0.63;0.30;;;;;;;;;;5074732;28;20074;-41
2022/10/25 02:44:16;;;;;;;2.63;0.90;;;;;;;;;;5074482;28;20475;-41
2022/10/25 02:46:41;;;;;;;0.30;0.17;;;;;;;;;;5074818;28;20370;-41
2022/10/25 02:49:07;;;;;;;0.10;0.10;;;;;;;;;;5074733;28;20086;-41
2022/10/25 02:51:32;;;;;;;1.95;0.30;;;;;;;;;;5074556;28;20112;-41
2022/10/25 02:53:58;;;;;;;1.10;0.65;;;;;;;;;;5074417;28;20017;-41
2022/10/25 02:56:24;;;;;;;0.10;0.10;;;;;;;;;;5074185;28;20093;-41
2022/10/25 02:58:50;;;;;;;3.30;0.20;;;;;;;;;;5074234;28;20025;-41
2022/10/25 03:01:16;;;;;;;0.10;0.10;;;;;;;;;;5074357;28;20505;-41
2022/10/25 03:03:42;;;;;;;0.20;0.20;;;;;;;;;;5073783;28;20036;-41
2022/10/25 03:06:09;;;;;;;0.43;0.30;;;;;;;;;;5074218;28;20033;-41
2022/10/25 03:08:35;;;;;;;0.47;0.20;;;;;;;;;;5074416;28;20095;-41
2022/10/25 03:11:01;;;;;;;2.47;0.20;;;;;;;;;;5074493;28;20104;-41
2022/10/25 03:13:26;;;;;;;1.35;0.40;;;;;;;;;;5074267;28;20506;-41
2022/10/25 03:15:52;;;;;;;0.32;0.15;;;;;;;;;;5074044;28;20425;-41
2022/10/25 03:18:17;;;;;;;1.38;1.27;;;;;;;;;;5074020;28;20016;-41
2022/10/25 03:20:43;;;;;;;0.20;0.20;;;;;;;;;;5073931;28;20036;-41
2022/10/25 03:23:08;;;;;;;0.22;0.10;;;;;;;;;;5074061;28;20052;-41
2022/10/25 03:25:33;;;;;;;2.45;0.17;;;;;;;;;;5073867;28;20060;-41
2022/10/25 03:27:59;;;;;;;0.30;0.25;;;;;;;;;;5073817;28;20017;-41
2022/10/25 03:30:25;;;;;;;0.95;0.20;;;;;;;;;;5073941;28;20043;-41
2022/10/25 03:32:50;;;;;;;0.20;0.20;;;;;;;;;;5072532;28;20425;-41
2022/10/25 03:35:15;;;;;;;0.35;0.28;;;;;;;;;;5073469;28;20475;-42
2022/10/25 03:37:41;;;;;;;0.10;0.10;;;;;;;;;;5073466;28;20045;-41
2022/10/25 03:40:06;;;;;;;0.43;0.13;;;;;;;;;;5073806;28;20036;-41
2022/10/25 03:42:32;;;;;;;0.22;0.10;;;;;;;;;;5073419;28;20575;-41
2022/10/25 03:44:57;;;;;;;1.27;0.20;;;;;;;;;;5073524;28;20033;-41
2022/10/25 03:47:23;;;;;;;2.08;0.20;;;;;;;;;;5073394;28;20098;-41
2022/10/25 03:49:48;;;;;;;0.40;0.20;;;;;;;;;;5072323;28;20054;-41
2022/10/25 03:52:13;;;;;;;0.90;0.20;;;;;;;;;;5073403;28;20077;-41
2022/10/25 03:54:41;;;;;;;0.08;0.03;;;;;;;;;;5073117;28;20060;-42
2022/10/25 03:57:06;;;;;;;0.20;0.20;;;;;;;;;;5073247;28;20514;-41
2022/10/25 03:59:32;;;;;;;0.20;0.10;;;;;;;;;;5073371;28;20124;-41
2022/10/25 04:01:57;;;;;;;6.68;0.45;;;;;;;;;;5073442;28;20024;-41
2022/10/25 04:04:23;;;;;;;1.80;0.20;;;;;;;;;;5073019;28;20383;-41
2022/10/25 04:06:48;;;;;;;0.30;0.17;;;;;;;;;;5073137;28;20095;-41
2022/10/25 04:09:13;;;;;;;0.15;0.15;;;;;;;;;;5072968;28;20413;-41
2022/10/25 04:11:39;;;;;;;0.15;0.15;;;;;;;;;;5073176;28;20473;-41
2022/10/25 04:14:04;;;;;;;0.30;0.22;;;;;;;;;;5072932;28;20811;-41
2022/10/25 04:16:30;;;;;;;0.65;0.22;;;;;;;;;;5071972;28;20039;-41
2022/10/25 04:18:57;;;;;;;1.90;0.17;;;;;;;;;;5073068;28;20047;-41
2022/10/25 04:21:23;;;;;;;0.35;0.35;;;;;;;;;;5072668;28;20025;-41
2022/10/25 04:23:49;;;;;;;0.30;0.30;;;;;;;;;;5073002;28;20546;-41
2022/10/25 04:26:17;;;;;;;0.50;0.30;;;;;;;;;;5072706;28;20017;-41
2022/10/25 04:28:43;;;;;;;3.00;0.75;;;;;;;;;;5072811;28;20052;-41
2022/10/25 04:31:09;;;;;;;0.30;0.30;;;;;;;;;;5072732;28;20029;-41
2022/10/25 04:33:34;;;;;;;0.63;0.30;;;;;;;;;;5072518;28;20363;-41
2022/10/25 04:36:00;;;;;;;1.33;0.57;;;;;;;;;;5072391;28;20025;-41
2022/10/25 04:38:25;;;;;;;1.23;0.30;;;;;;;;;;5071647;28;20110;-41
2022/10/25 04:40:57;;;;;;;1.40;0.20;;;;;;;;;;5071887;28;20032;-41
2022/10/25 04:43:23;;;;;;;0.10;0.10;;;;;;;;;;5071455;28;20056;-41
2022/10/25 04:45:49;;;;;;;0.70;0.40;;;;;;;;;;5071811;28;20024;-41
2022/10/25 04:48:14;;;;;;;0.20;0.20;;;;;;;;;;5071414;28;20054;-41
2022/10/25 04:50:40;;;;;;;0.10;0.10;;;;;;;;;;5071418;28;20052;-41
2022/10/25 04:53:05;;;;;;;0.25;0.20;;;;;;;;;;5071388;28;20124;-42
2022/10/25 04:55:31;;;;;;;0.50;0.28;;;;;;;;;;5069943;28;20159;-42
2022/10/25 04:57:56;;;;;;;0.38;0.30;;;;;;;;;;5071401;28;20032;-41
2022/10/25 05:00:22;;;;;;;0.45;0.28;;;;;;;;;;5071430;28;20031;-42
2022/10/25 05:02:50;;;;;;;2.08;0.20;;;;;;;;;;5071274;28;20032;-41
2022/10/25 05:05:15;;;;;;;0.20;0.20;;;;;;;;;;5071597;28;20032;-41
2022/10/25 05:07:41;;;;;;;0.50;0.20;;;;;;;;;;5071122;28;20028;-41
2022/10/25 05:10:06;;;;;;;0.10;0.10;;;;;;;;;;5071177;28;20104;-41
2022/10/25 05:12:31;;;;;;;3.17;1.33;;;;;;;;;;5071097;28;20028;-41
2022/10/25 05:14:57;;;;;;;0.10;0.10;;;;;;;;;;5071080;28;20116;-41
2022/10/25 05:17:22;;;;;;;0.22;0.10;;;;;;;;;;5071063;28;20074;-40
2022/10/25 05:19:48;;;;;;;0.30;0.25;;;;;;;;;;5071309;28;20025;-41
2022/10/25 05:22:13;;;;;;;3.03;0.20;;;;;;;;;;5070906;28;20028;-41
2022/10/25 05:24:38;;;;;;;1.67;0.40;;;;;;;;;;5070910;28;20036;-41
2022/10/25 05:27:04;;;;;;;0.30;0.20;;;;;;;;;;5070807;28;20421;-41
2022/10/25 05:29:29;;;;;;;1.60;0.30;;;;;;;;;;5070806;28;20020;-41
2022/10/25 05:31:55;;;;;;;0.68;0.30;;;;;;;;;;5070850;28;20112;-41
2022/10/25 05:34:20;;;;;;;0.20;0.20;;;;;;;;;;5070792;28;20032;-41
2022/10/25 05:36:46;;;;;;;0.10;0.10;;;;;;;;;;5070539;28;20037;-41
2022/10/25 05:39:11;;;;;;;1.05;0.20;;;;;;;;;;5028663;28;1218357;-41
2022/10/25 05:41:37;;;;;;;0.43;0.30;;;;;;;;;;5071500;28;20039;-41
2022/10/25 05:44:02;;;;;;;6.18;0.40;;;;;;;;;;5071501;28;20056;-41
2022/10/25 05:46:28;;;;;;;0.90;0.30;;;;;;;;;;5071460;28;20028;-41
2022/10/25 05:48:53;;;;;;;0.15;0.10;;;;;;;;;;5071666;28;20070;-41
2022/10/25 05:51:24;;;;;;;0.10;0.10;;;;;;;;;;5071648;28;20493;-41
2022/10/25 05:53:51;;;;;;;0.10;0.10;;;;;;;;;;5071800;28;20025;-41
2022/10/25 05:56:17;;;;;;;0.10;0.10;;;;;;;;;;5071103;28;20475;-41
2022/10/25 05:58:43;;;;;;;0.20;0.17;;;;;;;;;;5071234;28;20090;-41
2022/10/25 06:01:09;;;;;;;0.22;0.20;;;;;;;;;;5071351;28;20021;-41
2022/10/25 06:03:35;;;;;;;2.70;0.30;;;;;;;;;;5071391;28;20056;-41
2022/10/25 06:06:01;;;;;;;0.50;0.30;;;;;;;;;;5070013;28;20059;-41
2022/10/25 06:08:27;;;;;;;0.55;0.32;;;;;;;;;;5069962;28;20021;-41
2022/10/25 06:10:53;;;;;;;1.98;0.98;;;;;;;;;;5071177;28;20380;-41
2022/10/25 06:13:18;;;;;;;1.65;0.13;;;;;;;;;;5071532;28;20044;-41
2022/10/25 06:15:44;;;;;;;0.52;0.50;;;;;;;;;;5070753;28;20032;-41
2022/10/25 06:18:09;;;;;;;2.50;0.40;;;;;;;;;;5071179;28;20051;-41
2022/10/25 06:20:34;;;;;;;1.85;0.20;;;;;;;;;;5071479;28;20027;-41
2022/10/25 06:23:00;;;;;;;0.52;0.20;;;;;;;;;;5071410;28;20471;-41
2022/10/25 06:25:25;;;;;;;0.13;0.13;;;;;;;;;;5071002;28;20474;-42
2022/10/25 06:27:51;;;;;;;0.22;0.10;;;;;;;;;;5071411;28;20068;-41
2022/10/25 06:30:16;;;;;;;0.10;0.10;;;;;;;;;;5071231;28;20383;-41
2022/10/25 06:32:42;;;;;;;0.00;0.00;;;;;;;;;;5070928;28;20486;-40
2022/10/25 06:35:07;;;;;;;0.08;0.08;;;;;;;;;;5069725;28;20020;-41
2022/10/25 06:37:33;;;;;;;0.10;0.10;;;;;;;;;;5070982;28;20048;-41
2022/10/25 06:39:58;;;;;;;0.10;0.10;;;;;;;;;;5073372;28;20390;-41
2022/10/25 06:42:23;;;;;;;1.00;0.40;;;;;;;;;;5074539;28;20078;-41
2022/10/25 06:44:49;;;;;;;0.98;0.50;;;;;;;;;;5074694;28;20454;-41
2022/10/25 06:47:14;;;;;;;0.70;0.50;;;;;;;;;;5074440;28;20032;-41
2022/10/25 06:49:40;;;;;;;0.20;0.20;;;;;;;;;;5074892;28;20024;-40
2022/10/25 06:52:05;;;;;;;0.30;0.30;;;;;;;;;;5074713;28;20040;-41
2022/10/25 06:54:31;;;;;;;0.38;0.22;;;;;;;;;;5074480;28;20048;-41
2022/10/25 06:56:56;;;;;;;0.32;0.20;;;;;;;;;;5074378;28;20049;-41
2022/10/25 06:59:22;;;;;;;0.38;0.22;;;;;;;;;;5074207;28;20020;-46
2022/10/25 07:01:48;;;;;;;0.75;0.20;;;;;;;;;;5074184;28;20028;-41
2022/10/25 07:04:14;;;;;;;0.93;0.60;;;;;;;;;;5074259;28;20013;-41
2022/10/25 07:06:39;;;;;;;0.30;0.30;;;;;;;;;;5074427;28;20033;-42
2022/10/25 07:09:07;;;;;;;0.25;0.20;;;;;;;;;;5072778;28;20099;-41
2022/10/25 07:11:32;;;;;;;1.55;0.30;;;;;;;;;;5074042;28;20798;-40
2022/10/25 07:13:59;;;;;;;0.40;0.30;;;;;;;;;;5074086;28;20020;-41
2022/10/25 07:16:25;;;;;;;0.20;0.20;;;;;;;;;;5074227;28;20139;-41
2022/10/25 07:18:50;;;;;;;1.17;0.30;;;;;;;;;;5074304;28;20017;-41
2022/10/25 07:21:18;;;;;;;0.70;0.55;;;;;;;;;;5074176;28;20028;-41
2022/10/25 07:23:44;;;;;;;0.73;0.30;;;;;;;;;;5073879;28;20479;-41
2022/10/25 07:26:14;;;;;;;0.70;0.35;;;;;;;;;;5074129;28;20074;-41
2022/10/25 07:28:42;;;;;;;0.30;0.20;;;;;;;;;;5073740;28;20012;-41
2022/10/25 07:31:10;;;;;;;0.63;0.22;;;;;;;;;;5074003;28;20055;-41
2022/10/25 07:33:35;;;;;;;0.15;0.10;;;;;;;;;;5073677;28;20070;-41
2022/10/25 07:36:01;;;;;;;3.47;0.40;;;;;;;;;;5073748;28;20425;-41
2022/10/25 07:38:26;;;;;;;0.75;0.40;;;;;;;;;;5073346;28;20041;-41
2022/10/25 07:40:55;;;;;;;0.15;0.15;;;;;;;;;;5073907;28;20154;-41
2022/10/25 07:43:21;;;;;;;0.52;0.32;;;;;;;;;;5073376;28;20032;-41
2022/10/25 07:45:48;;;;;;;0.88;0.40;;;;;;;;;;5073400;28;20041;-41
2022/10/25 07:48:14;;;;;;;2.47;0.65;;;;;;;;;;5073586;28;20025;-41
2022/10/25 07:50:39;;;;;;;0.40;0.20;;;;;;;;;;5072155;28;20040;-41
2022/10/25 07:53:05;;;;;;;1.73;0.60;;;;;;;;;;5073621;28;20494;-41
2022/10/25 07:55:30;;;;;;;2.47;0.20;;;;;;;;;;5073135;28;20036;-41
2022/10/25 07:58:05;;;;;;;2.40;0.65;;;;;;;;;;5071917;28;20025;-41
2022/10/25 08:00:31;;;;;;;1.08;0.30;;;;;;;;;;5073096;28;20063;-41
2022/10/25 08:02:57;;;;;;;1.08;0.30;;;;;;;;;;5073170;28;20044;-40
2022/10/25 08:05:22;;;;;;;1.10;0.30;;;;;;;;;;5073038;28;20037;-41
2022/10/25 08:07:48;;;;;;;0.55;0.50;;;;;;;;;;5072964;28;20016;-40
2022/10/25 08:10:14;;;;;;;0.28;0.28;;;;;;;;;;5072975;28;20113;-42
2022/10/25 08:12:39;;;;;;;0.30;0.25;;;;;;;;;;5072733;28;20052;-41
2022/10/25 08:15:05;;;;;;;0.60;0.20;;;;;;;;;;5072868;28;20029;-41
2022/10/25 08:17:30;;;;;;;1.73;0.20;;;;;;;;;;5072862;28;20052;-40
2022/10/25 08:19:56;;;;;;;0.90;0.50;;;;;;;;;;5072694;28;20558;-40
2022/10/25 08:22:21;;;;;;;1.80;1.13;;;;;;;;;;5073016;28;20020;-41
2022/10/25 08:24:47;;;;;;;1.55;0.20;;;;;;;;;;5071417;28;20032;-41
2022/10/25 08:27:12;;;;;;;0.85;0.32;;;;;;;;;;5072604;28;20063;-41
2022/10/25 08:29:38;;;;;;;2.78;0.43;;;;;;;;;;5072507;28;20433;-41
2022/10/25 08:32:03;;;;;;;0.40;0.40;;;;;;;;;;5072553;28;20099;-41
2022/10/25 08:34:29;;;;;;;0.43;0.40;;;;;;;;;;5072444;28;20113;-40
2022/10/25 08:36:54;;;;;;;2.83;0.20;;;;;;;;;;5072450;28;20044;-41
2022/10/25 08:39:20;;;;;;;0.25;0.20;;;;;;;;;;5072623;28;20032;-41
2022/10/25 08:41:53;;;;;;;0.20;0.10;;;;;;;;;;5072254;28;20386;-41
2022/10/25 08:44:36;;;;;;;0.15;0.08;;;;;;;;;;5072316;28;20042;-41
2022/10/25 08:47:06;;;;;;;0.45;0.20;;;;;;;;;;5072547;28;20102;-42
2022/10/25 08:49:34;;;;;;;0.13;0.10;;;;;;;;;;5072135;28;20037;-41
2022/10/25 08:52:00;;;;;;;0.47;0.45;;;;;;;;;;5072118;28;20034;-41
2022/10/25 08:54:28;;;;;;;0.10;0.10;;;;;;;;;;5072196;28;20010;-41
2022/10/25 08:56:59;;;;;;;0.20;0.20;;;;;;;;;;5071986;28;20040;-41
2022/10/25 08:59:29;;;;;;;1.60;0.20;;;;;;;;;;5072204;28;20031;-41
2022/10/25 09:01:56;;;;;;;0.73;0.50;;;;;;;;;;5071813;28;20115;-41
2022/10/25 09:04:22;;;;;;;0.20;0.20;;;;;;;;;;5071987;28;20025;-41
2022/10/25 09:06:47;;;;;;;0.57;0.28;;;;;;;;;;5071891;28;20107;-41
2022/10/25 09:09:29;;;;;;;0.20;0.10;;;;;;;;;;5071798;28;20115;-41
2022/10/25 09:11:58;;;;;;;0.52;0.30;;;;;;;;;;5072200;28;20031;-41
2022/10/25 09:14:41;;;;;;;0.30;0.25;;;;;;;;;;5072217;28;20378;-41
2022/10/25 09:17:20;;;;;;;0.43;0.20;;;;;;;;;;5072082;28;20043;-41
2022/10/25 09:19:45;;;;;;;0.25;0.20;;;;;;;;;;5071740;28;20028;-41
2022/10/25 09:22:15;;;;;;;0.40;0.40;;;;;;;;;;5072020;28;20542;-41
2022/10/25 09:24:52;;;;;;;0.52;0.52;;;;;;;;;;5070744;28;20046;-41
2022/10/25 09:27:46;;;;;;;0.45;0.20;;;;;;;;;;5071997;28;20062;-41
2022/10/25 09:30:11;;;;;;;0.25;0.25;;;;;;;;;;5071899;28;20021;-41
2022/10/25 09:32:38;;;;;;;2.78;0.38;;;;;;;;;;5071821;28;20454;-41
2022/10/25 09:35:05;;;;;;;0.20;0.20;;;;;;;;;;5071442;28;20093;-41
2022/10/25 09:37:51;;;;;;;0.30;0.20;;;;;;;;;;5071479;28;20040;-41
2022/10/25 09:40:39;;;;;;;0.85;0.32;;;;;;;;;;5071538;28;20113;-41
2022/10/25 09:43:16;;;;;;;0.10;0.10;;;;;;;;;;5071667;28;20039;-41
2022/10/25 09:45:41;;;;;;;0.13;0.13;;;;;;;;;;5071259;28;20467;-41
2022/10/25 09:48:15;;;;;;;0.20;0.20;;;;;;;;;;5071454;28;20028;-41
2022/10/25 09:50:47;;;;;;;0.30;0.20;;;;;;;;;;5071323;28;20029;-41
2022/10/25 09:53:14;;;;;;;0.28;0.20;;;;;;;;;;5071729;28;20086;-42
2022/10/25 09:55:42;;;;;;;0.28;0.20;;;;;;;;;;5071290;28;20033;-41
2022/10/25 09:58:15;;;;;;;0.38;0.28;;;;;;;;;;5071340;28;20467;-41
2022/10/25 10:00:41;;;;;;;0.10;0.10;;;;;;;;;;5071530;28;20033;-41
2022/10/25 10:03:09;;;;;;;0.40;0.30;;;;;;;;;;5071407;28;20524;-41
2022/10/25 10:05:35;;;;;;;0.30;0.30;;;;;;;;;;5071158;28;20470;-41
2022/10/25 10:08:00;;;;;;;0.10;0.10;;;;;;;;;;5070119;28;20021;-41
2022/10/25 10:10:29;;;;;;;3.70;2.05;;;;;;;;;;5071539;28;20040;-41
2022/10/25 10:13:13;;;;;;;0.20;0.20;;;;;;;;;;5071293;28;20623;-42
2022/10/25 10:15:58;;;;;;;0.15;0.15;;;;;;;;;;5074784;28;20032;-41
2022/10/25 10:18:31;;;;;;;0.45;0.20;;;;;;;;;;5075462;28;20103;-41
2022/10/25 10:20:56;;;;;;;4.32;2.08;;;;;;;;;;5075061;28;20029;-41
2022/10/25 10:23:22;;;;;;;5.57;1.65;;;;;;;;;;5075154;28;20039;-42
2022/10/25 10:25:48;;;;;;;0.10;0.10;;;;;;;;;;5074914;28;20037;-41
2022/10/25 10:28:13;;;;;;;0.20;0.20;;;;;;;;;;5074911;28;20028;-41
2022/10/25 10:30:39;;;;;;;0.10;0.10;;;;;;;;;;5074919;28;20046;-41
2022/10/25 10:33:08;;;;;;;1.25;0.55;;;;;;;;;;5074868;28;20042;-41
2022/10/25 10:35:35;;;;;;;0.80;0.22;;;;;;;;;;5074670;28;20080;-41
2022/10/25 10:38:12;;;;;;;0.28;0.28;;;;;;;;;;5074605;28;20044;-44
2022/10/25 10:40:37;;;;;;;2.40;0.40;;;;;;;;;;5074833;28;20040;-41
2022/10/25 10:43:21;;;;;;;0.95;0.52;;;;;;;;;;5074692;28;20024;-41
2022/10/25 10:45:46;;;;;;;;;;;;;;;;;;5075036;28;20548;-41
2022/10/25 10:48:18;;;;;;;0.10;0.10;;;;;;;;;;5074373;28;19998;-41
2022/10/25 10:50:47;;;;;;;0.52;0.20;;;;;;;;;;5074619;28;20028;-41
2022/10/25 10:53:28;;;;;;;0.30;0.30;;;;;;;;;;5073271;28;20230;-41
2022/10/25 10:55:55;;;;;;;0.60;0.38;;;;;;;;;;5074551;28;20062;-41
2022/10/25 10:58:23;;;;;;;0.38;0.25;;;;;;;;;;5074283;28;20475;-41
2022/10/25 11:00:48;;;;;;;0.30;0.30;;;;;;;;;;5074247;28;20040;-41
2022/10/25 11:03:32;;;;;;;1.33;1.23;;;;;;;;;;5074303;28;20016;-42
2022/10/25 11:05:59;;;;;;;1.10;0.32;;;;;;;;;;5074548;28;20033;-41
2022/10/25 11:08:24;;;;;;;0.38;0.28;;;;;;;;;;5074222;28;20024;-41
2022/10/25 11:10:49;;;;;;;0.75;0.68;;;;;;;;;;5073909;28;20027;-42
2022/10/25 11:13:16;;;;;;;0.10;0.10;;;;;;;;;;5074213;28;20066;-41
2022/10/25 11:15:51;;;;;;;0.20;0.20;;;;;;;;;;5073953;28;20050;-41
2022/10/25 11:18:18;;;;;;;2.20;0.40;;;;;;;;;;5072724;28;20475;-42
2022/10/25 11:20:46;;;;;;;1.38;0.40;;;;;;;;;;5074175;28;20085;-41
2022/10/25 11:23:32;;;;;;;0.75;0.20;;;;;;;;;;5073998;28;20040;-42
2022/10/25 11:26:03;;;;;;;2.42;0.35;;;;;;;;;;5073353;28;20129;-41
2022/10/25 11:28:49;;;;;;;0.57;0.30;;;;;;;;;;5073737;28;20555;-42
2022/10/25 11:31:25;;;;;;;0.20;0.20;;;;;;;;;;5062269;28;20117;-41
2022/10/25 11:34:02;;;;;;;0.20;0.20;;;;;;;;;;5073690;28;20028;-40
2022/10/25 11:36:36;;;;;;;0.88;0.25;;;;;;;;;;5073479;28;20410;-42
2022/10/25 11:39:10;;;;;;;0.52;0.20;;;;;;;;;;5073316;28;20040;-41
2022/10/25 11:41:55;;;;;;;1.23;0.30;;;;;;;;;;5073596;28;20368;-41
2022/10/25 11:44:36;;;;;;;0.15;0.10;;;;;;;;;;5072156;28;20055;-41
2022/10/25 11:47:08;;;;;;;0.25;0.25;;;;;;;;;;5073792;28;20399;-41
2022/10/25 11:49:40;;;;;;;0.25;0.13;;;;;;;;;;5073255;28;20051;-41
2022/10/25 11:52:25;;;;;;;1.00;0.30;;;;;;;;;;5073357;28;20020;-41
2022/10/25 11:55:10;;;;;;;0.35;0.20;;;;;;;;;;5073134;28;20033;-41
2022/10/25 11:57:38;;;;;;;0.50;0.30;;;;;;;;;;5072963;28;20033;-41
2022/10/25 12:00:25;;;;;;;0.30;0.20;;;;;;;;;;5073245;28;20027;-41
2022/10/25 12:02:54;;;;;;;0.20;0.20;;;;;;;;;;5073102;28;20040;-41
2022/10/25 12:05:19;;;;;;;0.30;0.30;;;;;;;;;;5073202;28;20024;-42
2022/10/25 12:08:09;;;;;;;1.75;0.15;;;;;;;;;;5072882;28;20032;-41
2022/10/25 12:10:37;;;;;;;0.10;0.10;;;;;;;;;;5073186;28;20086;-42
2022/10/25 12:13:10;;;;;;;4.57;1.15;;;;;;;;;;5073260;28;20020;-41
2022/10/25 12:15:40;;;;;;;0.30;0.30;;;;;;;;;;5072780;28;20043;-41
2022/10/25 12:18:09;;;;;;;0.40;0.20;;;;;;;;;;5073240;28;20425;-41
2022/10/25 12:20:35;;;;;;;0.20;0.10;;;;;;;;;;5072878;28;20359;-41
2022/10/25 12:23:02;;;;;;;2.00;0.20;;;;;;;;;;5072699;28;20024;-41
2022/10/25 12:25:36;;;;;;;0.40;0.40;;;;;;;;;;5072663;28;20028;-41
2022/10/25 12:28:16;;;;;;;0.43;0.22;;;;;;;;;;5072752;28;20367;-42
2022/10/25 12:30:43;;;;;;;0.55;0.15;;;;;;;;;;5072610;28;20036;-41
2022/10/25 12:33:30;;;;;;;1.10;0.52;;;;;;;;;;5072564;28;20028;-41
2022/10/25 12:35:58;;;;;;;0.30;0.20;;;;;;;;;;5072166;28;20041;-41
2022/10/25 12:38:31;;;;;;;0.35;0.25;;;;;;;;;;5071731;28;20087;-41
2022/10/25 12:41:00;;;;;;;0.82;0.30;;;;;;;;;;5072728;28;20036;-41
2022/10/25 12:43:35;;;;;;;0.77;0.77;;;;;;;;;;5072283;28;20098;-41
2022/10/25 12:46:00;;;;;;;0.25;0.20;;;;;;;;;;5071122;28;20516;-41
2022/10/25 12:48:26;;;;;;;0.50;0.50;;;;;;;;;;5072140;28;20103;-41
2022/10/25 12:51:05;;;;;;;0.20;0.20;;;;;;;;;;5070836;28;20064;-41
2022/10/25 12:53:34;;;;;;;0.10;0.10;;;;;;;;;;5070859;28;20426;-42
2022/10/25 12:56:01;;;;;;;2.90;0.32;;;;;;;;;;5072011;28;20483;-41
2022/10/25 12:58:33;;;;;;;2.65;0.20;;;;;;;;;;5070785;28;20024;-41
2022/10/25 13:01:17;;;;;;;2.15;0.20;;;;;;;;;;5072041;28;20071;-42
2022/10/25 13:03:55;;;;;;;0.35;0.30;;;;;;;;;;5071836;28;20032;-41
2022/10/25 13:06:33;;;;;;;0.45;0.30;;;;;;;;;;5072165;28;20020;-41
2022/10/25 13:09:01;;;;;;;0.40;0.30;;;;;;;;;;5071942;28;20043;-41
2022/10/25 13:11:33;;;;;;;0.30;0.30;;;;;;;;;;5072237;28;20020;-41
2022/10/25 13:13:59;;;;;;;0.55;0.28;;;;;;;;;;5071947;28;20028;-41
2022/10/25 13:16:30;;;;;;;1.02;0.45;;;;;;;;;;5071824;28;20119;-41
2022/10/25 13:19:15;;;;;;;2.83;0.30;;;;;;;;;;5070471;28;20024;-41
2022/10/25 13:21:52;;;;;;;0.70;0.30;;;;;;;;;;5071718;28;20033;-41
2022/10/25 13:24:44;;;;;;;0.30;0.20;;;;;;;;;;5071670;28;20127;-41
2022/10/25 13:27:12;;;;;;;0.50;0.30;;;;;;;;;;5070447;28;20040;-41
2022/10/25 13:29:56;;;;;;;4.10;0.52;;;;;;;;;;5071917;28;20020;-41
2022/10/25 13:32:22;;;;;;;0.20;0.20;;;;;;;;;;5071875;28;20043;-41
2022/10/25 13:34:47;;;;;;;0.25;0.25;;;;;;;;;;5071860;28;20467;-41
2022/10/25 13:37:31;;;;;;;0.20;0.20;;;;;;;;;;5071575;28;20068;-41
2022/10/25 13:39:57;;;;;;;2.88;0.77;;;;;;;;;;5070263;28;20036;-41
2022/10/25 13:42:33;;;;;;;2.08;0.63;;;;;;;;;;5071531;28;20105;-41
2022/10/25 13:45:02;;;;;;;2.72;0.22;;;;;;;;;;5071873;28;20028;-41
2022/10/25 13:48:00;;;;;;;0.80;0.30;;;;;;;;;;5071471;28;20028;-42
2022/10/25 13:50:27;;;;;;;0.50;0.30;;;;;;;;;;5051912;28;20032;-42
2022/10/25 13:52:55;;;;;;;2.35;0.40;;;;;;;;;;5075799;28;20039;-44
2022/10/25 13:55:22;;;;;;;0.20;0.20;;;;;;;;;;5075451;28;20467;-41
2022/10/25 13:57:49;;;;;;;1.95;0.45;;;;;;;;;;5075534;28;20016;-41
2022/10/25 14:00:31;;;;;;;0.50;0.20;;;;;;;;;;5075536;28;20028;-41
2022/10/25 14:03:08;;;;;;;0.20;0.20;;;;;;;;;;5075734;28;20032;-42
2022/10/25 14:05:52;;;;;;;0.50;0.30;;;;;;;;;;5075369;28;20036;-41
2022/10/25 14:08:23;;;;;;;0.63;0.52;;;;;;;;;;5075413;28;20032;-42
2022/10/25 14:10:49;;;;;;;0.55;0.45;;;;;;;;;;5075230;28;20081;-41
2022/10/25 14:13:18;;;;;;;1.25;1.25;;;;;;;;;;5075361;28;20091;-41
2022/10/25 14:15:50;;;;;;;0.63;0.43;;;;;;;;;;5075078;28;20064;-41
2022/10/25 14:18:18;;;;;;;0.43;0.43;;;;;;;;;;5075266;28;20072;-42
2022/10/25 14:20:45;;;;;;;0.38;0.28;;;;;;;;;;5074974;28;20120;-41
2022/10/25 14:23:17;;;;;;;0.98;0.45;;;;;;;;;;5075017;28;20032;-41
2022/10/25 14:25:49;;;;;;;0.50;0.50;;;;;;;;;;5074942;28;20020;-41
2022/10/25 14:28:27;;;;;;;0.82;0.70;;;;;;;;;;5074898;28;20040;-41
2022/10/25 14:30:56;;;;;;;2.75;0.70;;;;;;;;;;5075040;28;20028;-41
2022/10/25 14:33:21;;;;;;;1.10;0.40;;;;;;;;;;5074836;28;20498;-42
2022/10/25 14:35:48;;;;;;;1.00;0.40;;;;;;;;;;5074545;28;20045;-41
2022/10/25 14:38:18;;;;;;;0.57;0.40;;;;;;;;;;5074497;28;20506;-41
2022/10/25 14:41:10;;;;;;;4.28;1.05;;;;;;;;;;5074625;28;20546;-41
2022/10/25 14:43:36;;;;;;;0.45;0.32;;;;;;;;;;5073348;28;20174;-42
2022/10/25 14:46:05;;;;;;;0.57;0.38;;;;;;;;;;5074568;28;20031;-41
2022/10/25 14:48:31;;;;;;;0.73;0.30;;;;;;;;;;5074196;28;20117;-41
2022/10/25 14:50:59;;;;;;;1.85;0.38;;;;;;;;;;5074516;28;20370;-41
2022/10/25 14:53:25;;;;;;;0.68;0.65;;;;;;;;;;5074209;28;20158;-42
2022/10/25 14:56:01;;;;;;;0.35;0.30;;;;;;;;;;5074123;28;20112;-41